Aérodrome :
LOGIN :

S'inscrire | Disclaimer

   EN    FR    IT 

 










Légende :    VFR   VFR Marginal   IFR   IFR Intensif   IFR Très Intensif
Visi : 
Plafond : 
>= 8 km
>= 3000ft
5 à 8 km
1000 à 3000 ft
1500m à 5 km
500 à 1000 ft
800 à 1500m
200 à 500 ft
< 800m
< 200 ft
Symboles :   Orages  Brouillard  Fortes neiges  Fortes précipitations  Vent > 20 kt
SIGMETs :   Divers  Orages  Givrage  Turbulence  Onde Orograph.  Cendres Volcan.







- Altitude de l'aérodrome : 2220 ft


LOXZ - Zeltweg AB

DERNIER METAR :
  • 270520Z 00000KT 25KM -RA FEW050SC BKN070SC 12/10 Q1013 NOSIG

METARs EXPIRÉS :
  • 270450Z VRB01KT 25KM -RA FEW045SC SCT070SC BKN090AC 12/10 Q1013
  • 270350Z VRB01KT 25KM -RA FEW045SC BKN080SC 12/09 Q1013
  • 270250Z VRB02KT 30KM FEW070SC BKN100AC 12/11 Q1013

TAF TAF LOXZ
Valide du 27 à 06h jusqu'au 27 à 15h UTC


270515Z 2706/2715 VRB03KT 9999 -RA FEW045 BKN070
TEMPO 2710/2715 8000 RA FEW020 BKN040
Pas de NOTAMs connus pour ce terrain.



MET'MAP, la Météo Aéronautique d'un coup d'oeil ! - Copyright ORBIFLY Décembre 2007 - Disclaimer

ORBIFLY MET'MAP TEAM :

Programmation & Développement : Alexandra Zaïnal
Conception & Développement : Baudouin d'Aumeries
Co-Programmation & Développement : Marc-Olivier Méhu
Soutien technique & logistique : Manuel Goepfert

Contact : metmap@orbifly.com




SOURCES & CREDITS :

   NOAA